createdAt,value
2019-03-26T00:01:50.112Z,11.19
2019-03-26T00:04:22.493Z,11.21
2019-03-26T00:06:54.683Z,11.27
2019-03-26T00:09:27.007Z,11.28
2019-03-26T00:11:59.219Z,11.16
2019-03-26T00:14:31.354Z,11.02
2019-03-26T00:17:03.402Z,11.06
2019-03-26T00:19:35.279Z,10.95
2019-03-26T00:22:07.267Z,10.78
2019-03-26T00:24:39.428Z,10.70
2019-03-26T00:27:11.503Z,10.62
2019-03-26T00:29:43.672Z,10.46
2019-03-26T00:32:15.819Z,10.40
2019-03-26T00:34:48.024Z,10.25
2019-03-26T00:37:20.267Z,10.34
2019-03-26T00:39:52.456Z,10.48
2019-03-26T00:42:24.754Z,10.55
2019-03-26T00:44:56.859Z,10.56
2019-03-26T00:47:29.322Z,10.70
2019-03-26T00:50:01.531Z,10.77
2019-03-26T00:52:34.891Z,10.77
2019-03-26T00:55:07.898Z,10.79
2019-03-26T00:57:40.017Z,10.75
2019-03-26T01:00:14.394Z,10.77
2019-03-26T01:02:46.676Z,10.79
2019-03-26T01:05:18.839Z,10.67
2019-03-26T01:07:51.186Z,10.59
2019-03-26T01:10:29.104Z,10.65
2019-03-26T01:13:01.179Z,10.51
2019-03-26T01:15:33.480Z,10.40
2019-03-26T01:18:05.904Z,10.39
2019-03-26T01:20:38.043Z,10.39
2019-03-26T01:23:10.331Z,10.33
2019-03-26T01:25:42.797Z,10.35
2019-03-26T01:28:14.963Z,10.34
2019-03-26T01:30:47.175Z,10.33
2019-03-26T01:33:19.528Z,10.28
2019-03-26T01:35:52.023Z,10.38
2019-03-26T01:38:24.233Z,10.43
2019-03-26T01:40:56.174Z,10.29
2019-03-26T01:43:28.584Z,10.35
2019-03-26T01:46:00.978Z,10.33
2019-03-26T01:48:32.920Z,10.27
2019-03-26T01:51:05.109Z,10.15
2019-03-26T01:53:37.443Z,10.09
2019-03-26T01:56:09.596Z,10.04
2019-03-26T01:58:41.656Z,9.99
2019-03-26T02:01:13.820Z,10.00
2019-03-26T02:03:45.951Z,9.83
2019-03-26T02:06:18.066Z,9.76
2019-03-26T02:08:51.194Z,9.58
2019-03-26T02:11:23.327Z,9.56
2019-03-26T02:13:55.228Z,9.42
2019-03-26T02:16:27.261Z,9.36
2019-03-26T02:18:59.215Z,9.28
2019-03-26T02:21:31.196Z,9.36
2019-03-26T02:24:03.354Z,9.30
2019-03-26T02:26:35.609Z,9.29
2019-03-26T02:29:07.658Z,9.14
2019-03-26T02:31:39.690Z,9.09
2019-03-26T02:34:11.792Z,9.01
2019-03-26T02:36:43.777Z,9.03
2019-03-26T02:39:15.792Z,9.03
2019-03-26T02:41:47.729Z,8.97
2019-03-26T02:44:19.757Z,8.92
2019-03-26T02:46:51.890Z,8.65
2019-03-26T02:49:24.178Z,8.62
2019-03-26T02:51:56.256Z,8.65
2019-03-26T02:54:28.207Z,8.60
2019-03-26T02:57:00.441Z,8.59
2019-03-26T02:59:32.311Z,8.58
2019-03-26T03:02:04.771Z,8.45
2019-03-26T03:04:36.826Z,8.39
2019-03-26T03:07:08.726Z,8.36
2019-03-26T03:09:40.861Z,8.28
2019-03-26T03:12:13.034Z,8.26
2019-03-26T03:14:45.386Z,8.14
2019-03-26T03:17:17.263Z,8.25
2019-03-26T03:19:49.127Z,8.21
2019-03-26T03:22:20.925Z,8.16
2019-03-26T03:24:52.883Z,8.18
2019-03-26T03:27:25.011Z,8.27
2019-03-26T03:29:56.784Z,8.17
2019-03-26T03:32:28.720Z,8.07
2019-03-26T03:35:00.959Z,8.06
2019-03-26T03:37:33.344Z,8.05
2019-03-26T03:40:06.023Z,8.02
2019-03-26T03:42:38.387Z,8.14
2019-03-26T03:45:11.674Z,8.01
2019-03-26T03:47:42.156Z,8.03
2019-03-26T03:50:13.578Z,8.00
2019-03-26T03:52:44.201Z,7.92
2019-03-26T03:55:14.627Z,7.87
2019-03-26T03:57:45.915Z,7.78
2019-03-26T04:00:31.214Z,7.79
2019-03-26T04:03:01.522Z,7.78
2019-03-26T04:05:32.007Z,7.68
2019-03-26T04:08:02.198Z,7.68
2019-03-26T04:10:32.576Z,7.59
2019-03-26T04:13:02.869Z,7.58
2019-03-26T04:15:35.001Z,7.59
2019-03-26T04:18:05.145Z,7.48
2019-03-26T04:20:35.503Z,7.48
2019-03-26T04:23:05.772Z,7.53
2019-03-26T04:25:36.162Z,7.46
2019-03-26T04:28:06.452Z,7.41
2019-03-26T04:30:36.799Z,7.44
2019-03-26T04:33:07.112Z,7.51
2019-03-26T04:35:37.410Z,7.43
2019-03-26T04:38:07.653Z,7.49
2019-03-26T04:40:38.032Z,7.48
2019-03-26T04:43:08.302Z,7.57
2019-03-26T04:45:38.712Z,7.61
2019-03-26T04:48:09.049Z,7.52
2019-03-26T04:50:39.287Z,7.49
2019-03-26T04:53:09.325Z,7.53
2019-03-26T04:55:39.505Z,7.49
2019-03-26T04:58:09.790Z,7.40
2019-03-26T05:00:39.940Z,7.32
2019-03-26T05:03:10.394Z,7.36
2019-03-26T05:05:40.601Z,7.35
2019-03-26T05:08:10.696Z,7.43
2019-03-26T05:10:40.889Z,7.51
2019-03-26T05:13:11.326Z,7.55
2019-03-26T05:15:41.684Z,7.64
2019-03-26T05:18:11.867Z,7.58
2019-03-26T05:20:41.881Z,7.47
2019-03-26T05:23:11.913Z,7.46
2019-03-26T05:25:41.983Z,7.45
2019-03-26T05:28:12.073Z,7.53
2019-03-26T05:30:42.162Z,7.54
2019-03-26T05:33:12.387Z,7.65
2019-03-26T05:35:42.407Z,7.63
2019-03-26T05:38:14.306Z,7.47
2019-03-26T05:40:44.413Z,7.53
2019-03-26T05:43:14.641Z,7.72
2019-03-26T05:45:44.969Z,7.85
2019-03-26T05:48:15.337Z,7.96
2019-03-26T05:50:45.369Z,8.05
2019-03-26T05:53:15.522Z,8.13
2019-03-26T05:55:45.979Z,8.32
2019-03-26T05:58:16.483Z,8.32
2019-03-26T06:00:46.790Z,8.30
2019-03-26T06:03:17.122Z,8.33
2019-03-26T06:05:47.431Z,8.61
2019-03-26T06:08:17.571Z,8.92
2019-03-26T06:10:48.885Z,9.19
2019-03-26T06:13:19.179Z,9.20
2019-03-26T06:15:49.374Z,9.19
2019-03-26T06:18:19.489Z,9.34
2019-03-26T06:20:49.795Z,9.45
2019-03-26T06:23:20.097Z,9.19
2019-03-26T06:25:50.532Z,9.31
2019-03-26T06:28:20.987Z,9.54
2019-03-26T06:30:51.427Z,9.62
2019-03-26T06:33:21.772Z,9.84
2019-03-26T06:35:52.023Z,9.73
2019-03-26T06:38:22.297Z,9.91
2019-03-26T06:40:52.328Z,10.06
2019-03-26T06:43:22.594Z,9.92
2019-03-26T06:45:52.960Z,9.89
2019-03-26T06:48:23.500Z,10.04
2019-03-26T06:50:53.542Z,10.00
2019-03-26T06:53:23.969Z,10.24
2019-03-26T06:55:54.101Z,10.30
2019-03-26T06:58:24.509Z,10.29
2019-03-26T07:00:55.022Z,10.53
2019-03-26T07:03:25.508Z,10.60
2019-03-26T07:05:55.819Z,10.80
2019-03-26T07:08:26.357Z,10.76
2019-03-26T07:10:56.603Z,10.68
2019-03-26T07:13:28.106Z,10.87
2019-03-26T07:15:59.264Z,10.59
2019-03-26T07:18:29.805Z,10.39
2019-03-26T07:21:00.060Z,10.50
2019-03-26T07:23:30.542Z,10.55
2019-03-26T07:26:00.887Z,10.64
2019-03-26T07:28:31.299Z,10.72
2019-03-26T07:31:01.610Z,10.40
2019-03-26T07:33:31.776Z,10.59
2019-03-26T07:36:01.993Z,10.27
2019-03-26T07:38:32.492Z,10.31
2019-03-26T07:41:02.813Z,10.41
2019-03-26T07:43:33.278Z,10.57
2019-03-26T07:46:03.441Z,10.69
2019-03-26T07:48:33.480Z,10.72
2019-03-26T07:51:03.834Z,10.69
2019-03-26T07:53:34.217Z,10.50
2019-03-26T07:56:04.581Z,10.47
2019-03-26T07:58:35.042Z,10.59
2019-03-26T08:01:05.408Z,10.55
2019-03-26T08:03:35.679Z,10.64
2019-03-26T08:06:07.021Z,10.61
2019-03-26T08:08:40.582Z,10.64
2019-03-26T08:11:09.881Z,10.74
2019-03-26T08:13:41.141Z,11.04
2019-03-26T08:16:11.630Z,11.18
2019-03-26T08:18:42.038Z,11.19
2019-03-26T08:21:12.430Z,11.44
2019-03-26T08:23:42.792Z,11.39
2019-03-26T08:26:13.091Z,11.32
2019-03-26T08:28:43.472Z,11.61
2019-03-26T08:31:13.838Z,11.52
2019-03-26T08:33:44.144Z,11.14
2019-03-26T08:36:14.595Z,11.17
2019-03-26T08:38:44.909Z,11.34
2019-03-26T08:41:15.172Z,11.06
2019-03-26T08:43:45.358Z,11.03
2019-03-26T08:46:15.784Z,11.07
2019-03-26T08:48:46.212Z,10.90
2019-03-26T08:51:16.555Z,10.95
2019-03-26T08:53:46.993Z,10.95
2019-03-26T08:56:17.375Z,11.01
2019-03-26T08:58:47.669Z,11.03
2019-03-26T09:01:18.091Z,11.16
2019-03-26T09:03:48.504Z,11.25
2019-03-26T09:06:18.790Z,11.21
2019-03-26T09:08:49.285Z,11.25
2019-03-26T09:11:19.639Z,11.47
2019-03-26T09:13:50.114Z,11.52
2019-03-26T09:16:20.369Z,11.48
2019-03-26T09:18:50.593Z,11.55
2019-03-26T09:21:20.821Z,11.37
2019-03-26T09:23:51.151Z,11.72
2019-03-26T09:26:21.353Z,11.82
2019-03-26T09:28:51.686Z,11.65
2019-03-26T09:31:22.209Z,11.63
2019-03-26T09:33:52.450Z,11.86
2019-03-26T09:36:22.677Z,12.00
2019-03-26T09:38:52.933Z,12.11
2019-03-26T09:41:23.335Z,12.26
2019-03-26T09:43:53.809Z,12.14
2019-03-26T09:46:23.977Z,12.06
2019-03-26T09:48:54.393Z,11.96
2019-03-26T09:51:24.798Z,11.74
2019-03-26T09:53:55.037Z,11.46
2019-03-26T09:56:30.538Z,11.64
2019-03-26T09:58:57.309Z,11.60
2019-03-26T10:01:27.727Z,11.37
2019-03-26T10:03:57.989Z,11.23
2019-03-26T10:06:28.274Z,11.27
2019-03-26T10:08:58.540Z,10.99
2019-03-26T10:11:28.859Z,10.97
2019-03-26T10:13:59.205Z,11.00
2019-03-26T10:16:29.720Z,10.95
2019-03-26T10:18:59.926Z,10.93
2019-03-26T10:21:30.464Z,11.09
2019-03-26T10:24:00.537Z,11.04
2019-03-26T10:26:30.881Z,11.33
2019-03-26T10:29:15.103Z,11.64
2019-03-26T10:31:33.245Z,11.57
2019-03-26T10:34:03.788Z,11.62
2019-03-26T10:36:34.208Z,11.86
2019-03-26T10:39:06.021Z,12.04
2019-03-26T10:41:36.502Z,12.05
2019-03-26T10:44:07.618Z,12.34
2019-03-26T10:46:37.634Z,12.25
2019-03-26T10:49:08.016Z,12.28
2019-03-26T10:51:38.455Z,12.38
2019-03-26T10:54:09.802Z,12.29
2019-03-26T10:56:39.925Z,12.18
2019-03-26T10:59:09.950Z,12.15
2019-03-26T11:01:40.147Z,12.16
2019-03-26T11:04:10.184Z,12.32
2019-03-26T11:06:40.738Z,12.46
2019-03-26T11:09:23.109Z,12.59
2019-03-26T11:11:43.002Z,12.57
2019-03-26T11:14:13.373Z,12.51
2019-03-26T11:16:43.706Z,12.45
2019-03-26T11:19:13.796Z,12.48
2019-03-26T11:21:44.001Z,12.35
2019-03-26T11:24:14.274Z,12.13
2019-03-26T11:26:44.329Z,12.04
2019-03-26T11:29:14.508Z,12.04
2019-03-26T11:31:44.822Z,11.80
2019-03-26T11:34:15.327Z,11.76
2019-03-26T11:36:45.672Z,11.75
2019-03-26T11:39:16.037Z,11.91
2019-03-26T11:41:46.440Z,11.83
2019-03-26T11:44:16.748Z,11.72
2019-03-26T11:46:47.093Z,11.57
2019-03-26T11:49:17.533Z,11.47
2019-03-26T11:51:47.708Z,11.59
2019-03-26T11:54:17.983Z,11.49
2019-03-26T11:56:48.004Z,11.32
2019-03-26T11:59:18.172Z,11.49
2019-03-26T12:01:48.421Z,11.51
2019-03-26T12:04:19.967Z,11.55
2019-03-26T12:06:50.302Z,11.37
2019-03-26T12:09:20.793Z,11.34
2019-03-26T12:11:51.203Z,11.38
2019-03-26T12:14:21.531Z,11.39
2019-03-26T12:16:51.804Z,11.22
2019-03-26T12:19:22.103Z,11.26
2019-03-26T12:21:52.259Z,11.28
2019-03-26T12:24:22.546Z,11.30
2019-03-26T12:26:52.804Z,11.43
2019-03-26T12:29:23.115Z,11.45
2019-03-26T12:31:54.650Z,11.42
2019-03-26T12:34:25.107Z,11.49
2019-03-26T12:36:55.431Z,11.35
2019-03-26T12:39:25.932Z,11.41
2019-03-26T12:41:56.357Z,11.52
2019-03-26T12:44:26.492Z,11.54
2019-03-26T12:46:58.347Z,11.56
2019-03-26T12:49:28.997Z,11.53
2019-03-26T12:51:59.505Z,11.52
2019-03-26T12:54:29.853Z,11.49
2019-03-26T12:57:00.076Z,11.37
2019-03-26T12:59:30.359Z,11.35
2019-03-26T13:02:00.664Z,11.50
2019-03-26T13:04:30.965Z,11.58
2019-03-26T13:07:01.440Z,11.64
2019-03-26T13:09:31.776Z,11.71
2019-03-26T13:12:01.953Z,11.60
2019-03-26T13:14:32.121Z,11.72
2019-03-26T13:17:02.600Z,11.93
2019-03-26T13:19:32.847Z,11.99
2019-03-26T13:22:03.077Z,12.01
2019-03-26T13:24:33.412Z,12.02
2019-03-26T13:27:03.698Z,12.02
2019-03-26T13:29:33.893Z,12.15
2019-03-26T13:32:04.173Z,12.10
2019-03-26T13:34:34.481Z,12.19
2019-03-26T13:37:04.725Z,12.18
2019-03-26T13:39:34.860Z,11.97
2019-03-26T13:42:05.251Z,11.90
2019-03-26T13:44:35.852Z,11.94
2019-03-26T13:47:06.242Z,12.11
2019-03-26T13:49:36.719Z,12.17
2019-03-26T13:52:07.062Z,12.28
2019-03-26T13:54:37.793Z,12.24
2019-03-26T13:57:07.904Z,12.17
2019-03-26T13:59:38.197Z,12.29
2019-03-26T14:02:08.500Z,12.42
2019-03-26T14:04:38.901Z,12.53
2019-03-26T14:07:09.415Z,12.61
2019-03-26T14:09:39.742Z,12.45
2019-03-26T14:12:10.016Z,12.26
2019-03-26T14:14:40.040Z,12.06
2019-03-26T14:17:10.319Z,11.83
2019-03-26T14:19:40.663Z,11.92
2019-03-26T14:22:11.095Z,11.98
2019-03-26T14:24:42.320Z,12.14
2019-03-26T14:27:12.695Z,12.16
2019-03-26T14:29:42.994Z,12.28
2019-03-26T14:32:13.193Z,12.28
2019-03-26T14:34:51.460Z,12.25
2019-03-26T14:37:21.596Z,12.35
2019-03-26T14:39:54.943Z,12.38
2019-03-26T14:42:25.271Z,12.43
2019-03-26T14:44:55.325Z,12.47
2019-03-26T14:47:25.497Z,12.46
2019-03-26T14:49:55.696Z,12.53
2019-03-26T14:52:25.874Z,12.49
2019-03-26T14:54:56.327Z,12.62
2019-03-26T14:57:26.686Z,12.49
2019-03-26T14:59:57.013Z,12.58
2019-03-26T15:02:27.406Z,12.50
2019-03-26T15:04:57.717Z,12.34
2019-03-26T15:07:27.824Z,12.10
2019-03-26T15:09:58.177Z,11.93
2019-03-26T15:12:28.525Z,11.90
2019-03-26T15:14:58.856Z,11.67
2019-03-26T15:17:29.173Z,11.53
2019-03-26T15:19:59.647Z,11.29
2019-03-26T15:22:29.916Z,11.32
2019-03-26T15:25:00.406Z,11.22
2019-03-26T15:27:30.617Z,11.22
2019-03-26T15:30:00.694Z,11.33
2019-03-26T15:32:33.638Z,11.41
2019-03-26T15:35:03.841Z,11.43
2019-03-26T15:37:34.229Z,11.53
2019-03-26T15:40:05.827Z,11.61
2019-03-26T15:42:35.908Z,11.72
2019-03-26T15:45:06.636Z,11.60
2019-03-26T15:47:36.842Z,11.66
2019-03-26T15:50:07.948Z,11.64
2019-03-26T15:52:38.195Z,11.61
2019-03-26T15:55:08.818Z,11.61
2019-03-26T15:57:39.169Z,11.59
2019-03-26T16:00:10.470Z,11.46
2019-03-26T16:02:40.637Z,11.48
2019-03-26T16:05:10.971Z,11.59
2019-03-26T16:07:41.153Z,11.63
2019-03-26T16:10:11.704Z,11.54
2019-03-26T16:12:42.140Z,11.48
2019-03-26T16:15:12.546Z,11.48
2019-03-26T16:17:43.180Z,11.43
2019-03-26T16:20:13.663Z,11.29
2019-03-26T16:22:43.993Z,11.40
2019-03-26T16:25:15.215Z,11.32
2019-03-26T16:27:45.431Z,11.31
2019-03-26T16:30:16.087Z,11.26
2019-03-26T16:32:46.248Z,11.29
2019-03-26T16:35:16.657Z,11.25
2019-03-26T16:37:47.009Z,11.18
2019-03-26T16:40:17.288Z,11.15
2019-03-26T16:42:47.628Z,11.05
2019-03-26T16:45:18.078Z,11.04
2019-03-26T16:47:48.194Z,11.01
2019-03-26T16:50:18.806Z,11.08
2019-03-26T16:52:49.146Z,11.04
2019-03-26T16:55:19.528Z,11.02
2019-03-26T16:57:50.837Z,11.00
2019-03-26T17:00:25.062Z,10.97
2019-03-26T17:02:55.460Z,10.93
2019-03-26T17:05:27.500Z,10.95
2019-03-26T17:07:57.828Z,10.83
2019-03-26T17:10:28.389Z,10.92
2019-03-26T17:12:58.625Z,10.81
2019-03-26T17:15:28.983Z,10.78
2019-03-26T17:17:59.322Z,10.73
2019-03-26T17:20:29.543Z,10.70
2019-03-26T17:23:00.013Z,10.69
2019-03-26T17:25:30.480Z,10.67
2019-03-26T17:28:00.765Z,10.39
2019-03-26T17:30:31.333Z,10.37
2019-03-26T17:33:01.617Z,10.38
2019-03-26T17:35:32.004Z,10.33
2019-03-26T17:38:02.071Z,10.38
2019-03-26T17:40:32.352Z,10.45
2019-03-26T17:43:02.759Z,10.46
2019-03-26T17:45:33.136Z,10.42
2019-03-26T17:48:03.485Z,10.33
2019-03-26T17:50:33.858Z,10.35
2019-03-26T17:53:04.300Z,10.29
2019-03-26T17:55:34.835Z,10.31
2019-03-26T17:58:06.168Z,10.18
2019-03-26T18:00:37.627Z,10.01
2019-03-26T18:03:08.295Z,10.06
2019-03-26T18:05:38.984Z,10.06
2019-03-26T18:08:09.011Z,9.94
2019-03-26T18:10:39.405Z,9.87
2019-03-26T18:13:09.833Z,9.88
2019-03-26T18:15:40.266Z,9.94
2019-03-26T18:18:10.525Z,9.81
2019-03-26T18:20:41.277Z,9.81
2019-03-26T18:23:11.761Z,9.82
2019-03-26T18:25:41.980Z,9.80
2019-03-26T18:28:12.934Z,9.73
2019-03-26T18:30:43.529Z,9.70
2019-03-26T18:33:13.952Z,9.60
2019-03-26T18:35:44.487Z,9.63
2019-03-26T18:38:15.124Z,9.55
2019-03-26T18:40:45.550Z,9.56
2019-03-26T18:43:15.986Z,9.52
2019-03-26T18:45:46.869Z,9.51
2019-03-26T18:48:17.670Z,9.42
2019-03-26T18:50:48.025Z,9.48
2019-03-26T18:53:18.868Z,9.52
2019-03-26T18:55:49.069Z,9.47
2019-03-26T18:58:19.684Z,9.46
2019-03-26T19:00:50.026Z,9.41
2019-03-26T19:03:20.441Z,9.48
2019-03-26T19:05:50.798Z,9.37
2019-03-26T19:08:21.080Z,9.25
2019-03-26T19:10:51.352Z,9.24
2019-03-26T19:13:21.651Z,9.26
2019-03-26T19:15:52.082Z,9.06
2019-03-26T19:18:22.753Z,8.98
2019-03-26T19:21:02.101Z,8.87
2019-03-26T19:23:25.952Z,8.90
2019-03-26T19:25:56.341Z,8.87
2019-03-26T19:28:26.800Z,8.87
2019-03-26T19:30:57.221Z,8.86
2019-03-26T19:33:27.617Z,8.78
2019-03-26T19:35:57.981Z,8.76
2019-03-26T19:38:28.297Z,8.70
2019-03-26T19:40:58.435Z,8.64
2019-03-26T19:43:28.695Z,8.57
2019-03-26T19:45:59.417Z,8.55
2019-03-26T19:48:29.734Z,8.51
2019-03-26T19:50:59.903Z,8.48
2019-03-26T19:53:30.623Z,8.51
2019-03-26T19:56:00.964Z,8.38
2019-03-26T19:58:31.233Z,8.41
2019-03-26T20:01:01.527Z,8.36
2019-03-26T20:03:32.949Z,8.28
2019-03-26T20:06:12.852Z,8.27
2019-03-26T20:08:35.137Z,8.27
2019-03-26T20:11:05.408Z,8.17
2019-03-26T20:13:35.553Z,8.10
2019-03-26T20:16:05.903Z,7.92
2019-03-26T20:18:36.250Z,7.86
2019-03-26T20:21:06.541Z,7.71
2019-03-26T20:23:37.472Z,7.64
2019-03-26T20:26:07.394Z,7.56
2019-03-26T20:28:37.345Z,7.48
2019-03-26T20:31:07.354Z,7.36
2019-03-26T20:33:37.914Z,7.30
2019-03-26T20:36:07.940Z,7.18
2019-03-26T20:38:38.093Z,7.11
2019-03-26T20:41:08.075Z,7.09
2019-03-26T20:43:39.325Z,7.09
2019-03-26T20:46:09.925Z,6.93
2019-03-26T20:48:41.800Z,6.93
2019-03-26T20:51:11.910Z,6.91
2019-03-26T20:53:42.384Z,6.90
2019-03-26T20:56:12.536Z,6.90
2019-03-26T20:58:43.213Z,6.85
2019-03-26T21:01:13.723Z,6.85
2019-03-26T21:03:43.804Z,6.94
2019-03-26T21:06:14.108Z,6.90
2019-03-26T21:08:44.155Z,6.79
2019-03-26T21:11:14.156Z,6.78
2019-03-26T21:13:50.645Z,6.77
2019-03-26T21:16:16.135Z,6.73
2019-03-26T21:18:47.622Z,6.77
2019-03-26T21:21:17.900Z,6.83
2019-03-26T21:23:48.873Z,6.70
2019-03-26T21:26:19.024Z,6.72
2019-03-26T21:28:49.190Z,6.77
2019-03-26T21:31:19.827Z,6.76
2019-03-26T21:33:50.178Z,6.83
2019-03-26T21:36:20.450Z,6.89
2019-03-26T21:38:51.518Z,6.95
2019-03-26T21:41:21.888Z,7.03
2019-03-26T21:44:03.497Z,7.03
2019-03-26T21:46:23.969Z,7.06
2019-03-26T21:48:54.133Z,7.07
2019-03-26T21:51:24.405Z,7.10
2019-03-26T21:53:54.524Z,7.12
2019-03-26T21:56:24.626Z,7.15
2019-03-26T21:58:54.986Z,7.16
2019-03-26T22:01:25.191Z,7.05
2019-03-26T22:03:55.483Z,7.05
2019-03-26T22:06:25.958Z,7.08
2019-03-26T22:08:56.027Z,7.09
2019-03-26T22:11:26.191Z,7.14
2019-03-26T22:13:56.347Z,7.14
2019-03-26T22:16:26.384Z,7.13
2019-03-26T22:18:57.322Z,7.05
2019-03-26T22:21:27.455Z,7.04
2019-03-26T22:23:57.695Z,7.12
2019-03-26T22:26:27.750Z,7.23
2019-03-26T22:28:57.968Z,7.15
2019-03-26T22:31:27.944Z,7.19
2019-03-26T22:33:58.044Z,7.24
2019-03-26T22:36:28.025Z,7.28
2019-03-26T22:38:57.952Z,7.21
2019-03-26T22:41:27.993Z,7.19
2019-03-26T22:43:57.975Z,7.19
2019-03-26T22:46:28.000Z,7.13
2019-03-26T22:48:57.944Z,7.02
2019-03-26T22:51:28.080Z,7.16
2019-03-26T22:53:58.055Z,7.17
2019-03-26T22:56:28.214Z,7.15
2019-03-26T22:58:58.449Z,7.20
2019-03-26T23:01:28.567Z,7.15
2019-03-26T23:03:58.497Z,7.24
2019-03-26T23:06:28.724Z,7.25
2019-03-26T23:08:58.935Z,7.22
2019-03-26T23:11:28.864Z,7.04
2019-03-26T23:13:59.065Z,7.04
2019-03-26T23:16:29.194Z,6.96
2019-03-26T23:18:59.321Z,6.90
2019-03-26T23:21:29.534Z,6.82
2019-03-26T23:23:59.628Z,6.90
2019-03-26T23:26:30.088Z,6.87
2019-03-26T23:29:00.144Z,6.86
2019-03-26T23:31:30.364Z,6.84
2019-03-26T23:34:00.455Z,6.95
2019-03-26T23:36:30.410Z,6.93
2019-03-26T23:39:00.557Z,6.84
2019-03-26T23:41:32.452Z,6.79
2019-03-26T23:44:02.547Z,6.76
2019-03-26T23:46:32.790Z,6.77
2019-03-26T23:49:02.933Z,6.73
2019-03-26T23:51:33.200Z,6.66
2019-03-26T23:54:03.149Z,6.59
2019-03-26T23:56:33.145Z,6.58
2019-03-26T23:59:03.470Z,6.50
